2022/06/28 08:50 EDDH 280850Z AUTO 24009KT 220V280 9999 FEW022 19/12 Q1021 NOSIG